Aérodrome :







RETROUVEZ-NOUS SUR...

 
LOGIN :

S'inscrire | Disclaimer

   EN    FR    IT 

 









Légende :    VFR   VFR Marginal   IFR   IFR Intensif   IFR Très Intensif
Visi : 
Plafond : 
>= 8 km
>= 3000ft
5 à 8 km
1000 à 3000 ft
1500m à 5 km
500 à 1000 ft
800 à 1500m
200 à 500 ft
< 800m
< 200 ft
Symboles :   Orages  Brouillard  Fortes neiges  Fortes précipitations  Vent > 20 kt






- Altitude de l'aérodrome : 41 ft
- Code IATA : GND


TGPY - Point Salines

DERNIER METAR :
  • 212100Z 10010KT 9999 FEW019 SCT035 28/23 Q1011 NOSIG ADJ SHRA-NE

METARs EXPIRÉS :
  • 212000Z 12012KT 9999 FEW019 28/23 Q1011 NOSIG ADJ SHRA-NE
  • 211900Z 10014KT 9999 FEW019 28/23 Q1011 NOSIG

TAF TGPY
Valide du 21 à 18h jusqu'au 22 à 18h UTC


211538Z 2118/2218 10015KT 9999 FEW023
BECMG 2123/2201 08011KT SCT018
BECMG 2210/2212 10015KT SCT020



MET'MAP, la Météo Aéronautique d'un coup d'oeil ! - Copyright ORBIFLY Décembre 2007 - Disclaimer

ORBIFLY MET'MAP TEAM :

Programmation & Développement : Alexandra Zaïnal
Sur une idée originale de : Baudouin d'Aumeries
Assistance à la programmation : Marc-Olivier Méhu
Soutien technique & logistique : Manuel Goepfert

Contact : metmap@orbifly.com




SOURCES & CREDITS :

   NOAA